Time;durP1;ratioP1;P1;durP2;ratioP2;P2;SDS_P1;SDS_P2;PMS_P1;PMS_P2;Temp;Humidity;BMP_temperature;BMP_pressure;BME280_temperature;BME280_humidity;BME280_pressure;Samples;Min_cycle;Max_cycle;Signal;HPM_P1;HPM_P2
2020/12/21 00:03:32;;;;;;;;;;;;;;;;;;;;;
2020/12/21 00:17:11;;;;;;;3.67;0.10;;;11.10;86.40;;;;;;4122222;27;20082;-92
2020/12/21 00:19:38;;;;;;;0.30;0.30;;;11.10;86.50;;;;;;4154577;27;20063;-90
2020/12/21 00:22:30;;;;;;;0.73;0.60;;;11.10;86.50;;;;;;4128962;27;20090;-90
2020/12/21 00:25:14;;;;;;;0.98;0.10;;;11.10;86.60;;;;;;4089582;35;20083;-89
2020/12/21 00:27:59;;;;;;;;;;;;;;;;;;;;;
2020/12/21 00:30:56;;;;;;;;;;;;;;;;;;;;;
2020/12/21 00:37:40;;;;;;;;;;;;;;;;;;;;;
2020/12/21 00:45:13;;;;;;;;;;;;;;;;;;;;;
2020/12/21 01:53:09;;;;;;;;;;;;;;;;;;;;;
2020/12/21 01:55:48;;;;;;;0.00;0.00;;;11.10;86.90;;;;;;4099610;27;19982;-91
2020/12/21 02:01:22;;;;;;;0.00;0.00;;;11.10;86.80;;;;;;4079054;27;20092;-91
2020/12/21 02:06:59;;;;;;;0.00;0.00;;;11.10;86.90;;;;;;4136713;27;20055;-90
2020/12/21 02:12:44;;;;;;;0.00;0.00;;;11.10;87.80;;;;;;4100422;34;20080;-89
2020/12/21 02:15:17;;;;;;;0.20;0.00;;;11.10;87.10;;;;;;4105875;27;20094;-88
2020/12/21 02:17:53;;;;;;;0.00;0.00;;;11.10;87.10;;;;;;4104424;34;20082;-91
2020/12/21 02:23:37;;;;;;;0.00;0.00;;;11.10;87.20;;;;;;4140187;34;20113;-91
2020/12/21 02:26:16;;;;;;;;;;;;;;;;;;;;;
2020/12/21 02:29:04;;;;;;;0.00;0.00;;;11.10;87.30;;;;;;4131339;34;20085;-89
2020/12/21 02:31:30;;;;;;;0.03;0.03;;;11.00;87.20;;;;;;4098793;28;20089;-89
2020/12/21 02:34:06;;;;;;;0.20;0.00;;;11.00;87.20;;;;;;4089659;35;20064;-90
2020/12/21 02:36:35;;;;;;;0.00;0.00;;;11.10;87.30;;;;;;4074563;35;20060;-92
2020/12/21 02:39:04;;;;;;;0.15;0.08;;;11.00;87.30;;;;;;4066599;35;20052;-89
2020/12/21 02:41:34;;;;;;;0.05;0.00;;;11.00;87.40;;;;;;4071021;35;20114;-88
2020/12/21 02:44:00;;;;;;;0.32;0.00;;;11.00;87.40;;;;;;4053033;35;20099;-89
2020/12/21 02:46:32;;;;;;;5.80;0.10;;;11.00;87.50;;;;;;4063806;28;20083;-87
2020/12/21 02:49:02;;;;;;;0.00;0.00;;;11.00;87.60;;;;;;4072028;27;20052;-89
2020/12/21 02:51:38;;;;;;;0.03;0.00;;;11.00;87.60;;;;;;4106575;34;20074;-88
2020/12/21 02:54:32;;;;;;;0.10;0.10;;;11.00;87.60;;;;;;4131916;27;20126;-88
2020/12/21 02:57:13;;;;;;;0.00;0.00;;;10.90;87.60;;;;;;4103662;27;20066;-89
2020/12/21 02:59:58;;;;;;;1.80;0.15;;;10.90;87.60;;;;;;4120380;27;20086;-89
2020/12/21 03:06:11;;;;;;;0.00;0.00;;;10.90;87.60;;;;;;4063389;35;20056;-89
2020/12/21 03:16:35;;;;;;;0.00;0.00;;;10.90;87.70;;;;;;4137713;27;20434;-90
2020/12/21 03:24:16;;;;;;;0.20;0.10;;;10.80;87.60;;;;;;4134578;27;20078;-89
2020/12/21 03:26:53;;;;;;;0.00;0.00;;;10.90;87.70;;;;;;4130722;27;20450;-91
2020/12/21 03:31:55;;;;;;;0.15;0.15;;;10.90;87.60;;;;;;4156294;27;20096;-89
2020/12/21 03:34:52;;;;;;;0.17;0.00;;;10.90;87.60;;;;;;4102338;27;20051;-90
2020/12/21 03:39:57;;;;;;;;;;;;;;;;;;;;;
2020/12/21 03:45:06;;;;;;;0.00;0.00;;;10.90;87.40;;;;;;4137192;27;20059;-86
2020/12/21 03:47:32;;;;;;;1.10;0.35;;;10.90;87.30;;;;;;4115649;28;20091;-88
2020/12/21 03:50:22;;;;;;;4.30;0.08;;;10.90;87.20;;;;;;4105603;35;20071;-88
2020/12/21 03:52:54;;;;;;;0.32;0.17;;;10.90;87.20;;;;;;4122114;27;20076;-88
2020/12/21 03:55:21;;;;;;;0.00;0.00;;;10.90;87.20;;;;;;4067867;27;20064;-87
2020/12/21 03:57:50;;;;;;;0.85;0.00;;;10.90;87.20;;;;;;4056908;27;20084;-91
2020/12/21 04:00:22;;;;;;;0.10;0.00;;;10.90;87.20;;;;;;4089069;27;20053;-91
2020/12/21 04:02:49;;;;;;;0.00;0.00;;;11.00;87.30;;;;;;4109595;34;20090;-86
2020/12/21 04:10:52;;;;;;;0.00;0.00;;;11.00;87.30;;;;;;4078549;35;20064;-89
2020/12/21 04:13:28;;;;;;;;;;;;;;;;;;;;;
2020/12/21 04:16:50;;;;;;;0.00;0.00;;;10.90;87.20;;;;;;4097752;27;20052;-88
2020/12/21 04:19:38;;;;;;;;;;;;;;;;;;;;;
2020/12/21 04:22:05;;;;;;;0.28;0.03;;;10.90;87.20;;;;;;4038015;35;20645;-90
2020/12/21 04:24:54;;;;;;;1.70;0.05;;;10.90;87.20;;;;;;4025266;35;20046;-91
2020/12/21 04:35:06;;;;;;;0.00;0.00;;;10.90;87.00;;;;;;4133385;34;20055;-88
2020/12/21 04:37:59;;;;;;;0.03;0.00;;;10.90;87.20;;;;;;4121426;27;20087;-89
2020/12/21 04:48:23;;;;;;;0.08;0.00;;;10.90;87.10;;;;;;4128763;27;20139;-88
2020/12/21 04:51:18;;;;;;;0.00;0.00;;;10.90;87.10;;;;;;4105227;34;20445;-89
2020/12/21 04:53:45;;;;;;;0.00;0.00;;;10.90;87.10;;;;;;4091670;27;20078;-85
2020/12/21 04:56:14;;;;;;;0.00;0.00;;;10.90;87.10;;;;;;4105941;27;20067;-89
2020/12/21 04:58:45;;;;;;;0.10;0.10;;;10.90;87.10;;;;;;4109908;27;20379;-88
2020/12/21 05:01:11;;;;;;;0.00;0.00;;;10.90;87.10;;;;;;4116292;27;20079;-88
2020/12/21 05:04:02;;;;;;;0.65;0.08;;;11.00;87.20;;;;;;4077383;27;20083;-87
2020/12/21 05:06:29;;;;;;;0.65;0.35;;;11.00;87.10;;;;;;4101106;27;20036;-87
2020/12/21 05:09:06;;;;;;;0.00;0.00;;;11.00;87.00;;;;;;4089559;35;20051;-89
2020/12/21 05:11:39;;;;;;;8.88;0.30;;;11.00;87.00;;;;;;4112960;27;20036;-89
2020/12/21 05:14:14;;;;;;;0.00;0.00;;;10.90;86.90;;;;;;4063308;27;20088;-90
2020/12/21 05:16:49;;;;;;;0.20;0.00;;;11.00;87.00;;;;;;4095717;28;20055;-89
2020/12/21 05:19:28;;;;;;;0.00;0.00;;;11.00;87.00;;;;;;4130517;27;20060;-88
2020/12/21 05:21:57;;;;;;;0.85;0.10;;;11.00;87.00;;;;;;4125099;27;20529;-89
2020/12/21 05:24:24;;;;;;;0.00;0.00;;;11.00;86.80;;;;;;4117653;27;20050;-88
2020/12/21 05:26:50;;;;;;;0.10;0.00;;;11.10;86.90;;;;;;4163564;27;20423;-90
2020/12/21 05:29:29;;;;;;;0.00;0.00;;;11.10;86.80;;;;;;4100582;34;20043;-89
2020/12/21 05:31:58;;;;;;;0.30;0.00;;;11.10;86.80;;;;;;4168754;27;20078;-88
2020/12/21 05:34:27;;;;;;;0.30;0.00;;;11.10;86.70;;;;;;4107960;34;20074;-89
2020/12/21 05:36:57;;;;;;;0.47;0.28;;;11.10;86.70;;;;;;4120893;27;20106;-88
2020/12/21 05:39:23;;;;;;;0.00;0.00;;;11.10;87.50;;;;;;4116317;34;20477;-91
2020/12/21 05:41:50;;;;;;;0.00;0.00;;;11.10;86.70;;;;;;4144445;27;20046;-89
2020/12/21 05:44:22;;;;;;;0.10;0.00;;;11.10;86.70;;;;;;4088124;35;20032;-87
2020/12/21 05:46:51;;;;;;;0.00;0.00;;;11.10;86.60;;;;;;4100717;28;20109;-87
2020/12/21 05:49:21;;;;;;;0.73;0.10;;;11.20;86.60;;;;;;4111282;27;20494;-89
2020/12/21 05:51:47;;;;;;;0.00;0.00;;;11.20;86.50;;;;;;4102489;35;20435;-88
2020/12/21 05:54:14;;;;;;;0.45;0.10;;;11.20;86.50;;;;;;4117002;27;20046;-88
2020/12/21 05:56:40;;;;;;;0.38;0.28;;;11.20;86.50;;;;;;4100815;35;20056;-88
2020/12/21 05:59:06;;;;;;;0.00;0.00;;;11.20;86.50;;;;;;4111643;34;20072;-88
2020/12/21 06:01:45;;;;;;;0.00;0.00;;;11.20;86.40;;;;;;4108210;27;20050;-88
2020/12/21 06:06:53;;;;;;;0.00;0.00;;;11.30;86.50;;;;;;4123783;27;20063;-88
2020/12/21 06:09:29;;;;;;;0.00;0.00;;;11.30;86.40;;;;;;4134071;27;20094;-88
2020/12/21 06:12:02;;;;;;;0.00;0.00;;;11.30;86.40;;;;;;4126279;27;20056;-90
2020/12/21 06:14:31;;;;;;;0.00;0.00;;;11.30;86.30;;;;;;4114269;27;20087;-87
2020/12/21 06:17:00;;;;;;;0.10;0.00;;;11.40;86.40;;;;;;4127857;27;20067;-88
2020/12/21 06:19:27;;;;;;;0.52;0.22;;;11.30;86.30;;;;;;4162699;27;20115;-88
2020/12/21 06:21:54;;;;;;;0.00;0.00;;;11.40;86.40;;;;;;4139688;34;20067;-88
2020/12/21 06:24:38;;;;;;;0.20;0.17;;;11.40;86.30;;;;;;4104614;34;20078;-88
2020/12/21 06:27:58;;;;;;;0.00;0.00;;;11.40;86.30;;;;;;4091434;34;20094;-90
2020/12/21 06:30:38;;;;;;;0.03;0.00;;;11.40;86.30;;;;;;4106595;27;20064;-89
2020/12/21 06:33:26;;;;;;;0.05;0.00;;;11.40;86.20;;;;;;4098405;27;20111;-88
2020/12/21 06:35:51;;;;;;;0.00;0.00;;;11.40;86.10;;;;;;4107002;27;20074;-89
2020/12/21 06:38:17;;;;;;;0.00;0.00;;;11.40;86.10;;;;;;4149096;27;20043;-89
2020/12/21 06:40:53;;;;;;;0.20;0.10;;;11.40;86.20;;;;;;4104925;35;20067;-88
2020/12/21 06:43:29;;;;;;;0.00;0.00;;;11.40;86.10;;;;;;4120377;27;20110;-89
2020/12/21 06:45:55;;;;;;;0.00;0.00;;;11.50;86.10;;;;;;4102353;27;20076;-89
2020/12/21 06:48:24;;;;;;;0.00;0.00;;;11.50;86.10;;;;;;4101182;35;20066;-89
2020/12/21 06:50:57;;;;;;;0.20;0.00;;;11.50;86.00;;;;;;4118663;27;20334;-88
2020/12/21 06:53:29;;;;;;;0.00;0.00;;;11.50;86.00;;;;;;4111816;27;20040;-88
2020/12/21 06:55:55;;;;;;;0.00;0.00;;;11.50;86.10;;;;;;4139420;27;20051;-89
2020/12/21 06:58:34;;;;;;;0.10;0.00;;;11.50;86.00;;;;;;4084487;35;20058;-88
2020/12/21 07:01:35;;;;;;;0.00;0.00;;;11.50;86.10;;;;;;4116840;27;20099;-88
2020/12/21 07:04:08;;;;;;;1.45;0.13;;;11.60;86.30;;;;;;4130922;27;20040;-89
2020/12/21 07:06:38;;;;;;;0.00;0.00;;;11.50;86.10;;;;;;4109085;27;20036;-90
2020/12/21 07:09:05;;;;;;;0.08;0.00;;;11.60;86.20;;;;;;4105253;27;20068;-89
2020/12/21 07:11:44;;;;;;;0.00;0.00;;;11.60;87.00;;;;;;4099794;27;20430;-90
2020/12/21 07:14:21;;;;;;;0.00;0.00;;;11.50;86.20;;;;;;4117715;34;20089;-89
2020/12/21 07:19:13;;;;;;;0.38;0.10;;;11.60;86.20;;;;;;4138639;34;20039;-88
2020/12/21 07:21:40;;;;;;;0.00;0.00;;;11.60;86.20;;;;;;4098674;27;20711;-89
2020/12/21 07:24:08;;;;;;;3.20;0.20;;;11.60;86.20;;;;;;4115513;34;20071;-85
2020/12/21 07:26:35;;;;;;;0.00;0.00;;;11.60;86.20;;;;;;4195812;27;20063;-86
2020/12/21 07:29:04;;;;;;;0.00;0.00;;;11.60;86.20;;;;;;4105746;35;20079;-89
2020/12/21 07:31:32;;;;;;;0.88;0.10;;;11.60;86.20;;;;;;4125201;27;20145;-88
2020/12/21 07:34:00;;;;;;;0.00;0.00;;;11.60;86.30;;;;;;4129390;27;20044;-87
2020/12/21 07:36:28;;;;;;;0.20;0.00;;;11.70;86.30;;;;;;4129684;34;20042;-87
2020/12/21 07:39:43;;;;;;;0.00;0.00;;;11.60;86.20;;;;;;4130047;34;20474;-88
2020/12/21 07:42:12;;;;;;;0.15;0.03;;;11.70;86.30;;;;;;4135097;27;20075;-89
2020/12/21 07:44:58;;;;;;;0.00;0.00;;;11.80;86.30;;;;;;4119434;34;20353;-88
2020/12/21 07:47:32;;;;;;;0.00;0.00;;;11.80;86.00;;;;;;4117383;27;20047;-88
2020/12/21 07:49:59;;;;;;;0.00;0.00;;;11.90;85.80;;;;;;4114963;34;20051;-89
2020/12/21 07:52:26;;;;;;;0.00;0.00;;;11.90;85.80;;;;;;4109360;27;20114;-88
2020/12/21 07:54:52;;;;;;;0.00;0.00;;;12.00;85.80;;;;;;4115530;34;20059;-89
2020/12/21 07:57:19;;;;;;;0.13;0.10;;;12.00;85.70;;;;;;4121072;27;20071;-89
2020/12/21 07:59:58;;;;;;;0.65;0.03;;;12.10;85.70;;;;;;4137786;34;20106;-89
2020/12/21 08:02:25;;;;;;;0.30;0.00;;;12.10;85.70;;;;;;4114415;27;20099;-87
2020/12/21 08:07:27;;;;;;;0.00;0.00;;;12.10;85.70;;;;;;4139027;34;20042;-89
2020/12/21 08:09:53;;;;;;;0.00;0.00;;;12.10;85.60;;;;;;4122767;27;20462;-89
2020/12/21 08:12:23;;;;;;;0.00;0.00;;;12.20;85.70;;;;;;4134846;27;20053;-88
2020/12/21 08:15:06;;;;;;;0.00;0.00;;;12.20;85.50;;;;;;4148464;27;20062;-86
2020/12/21 08:20:14;;;;;;;0.00;0.00;;;12.30;85.50;;;;;;4140912;27;20079;-89
2020/12/21 08:22:42;;;;;;;0.03;0.03;;;12.30;85.50;;;;;;4096432;27;20435;-88
2020/12/21 08:25:12;;;;;;;0.20;0.00;;;12.40;85.50;;;;;;4134153;27;20071;-88
2020/12/21 08:27:58;;;;;;;0.00;0.00;;;12.50;85.40;;;;;;4123787;27;20085;-87
2020/12/21 08:30:25;;;;;;;0.00;0.00;;;12.60;85.30;;;;;;4176857;27;20103;-90
2020/12/21 08:32:52;;;;;;;0.00;0.00;;;12.60;85.20;;;;;;4115047;34;20094;-91
2020/12/21 08:35:23;;;;;;;0.00;0.00;;;12.70;85.10;;;;;;4143562;27;20032;-89
2020/12/21 08:37:50;;;;;;;0.00;0.00;;;12.80;85.00;;;;;;4104648;34;20032;-88
2020/12/21 08:40:23;;;;;;;0.00;0.00;;;12.80;85.10;;;;;;4165426;27;20051;-90
2020/12/21 08:42:52;;;;;;;0.00;0.00;;;12.70;85.30;;;;;;4127208;27;20466;-88
2020/12/21 08:45:25;;;;;;;0.43;0.00;;;12.70;85.30;;;;;;4152724;27;20074;-88
2020/12/21 08:47:51;;;;;;;0.00;0.00;;;12.80;85.40;;;;;;4114776;27;20054;-88
2020/12/21 08:50:17;;;;;;;0.00;0.00;;;12.80;85.30;;;;;;4122600;27;20047;-90
2020/12/21 08:52:47;;;;;;;0.00;0.00;;;12.90;85.30;;;;;;4154159;27;20082;-88
2020/12/21 08:55:13;;;;;;;0.00;0.00;;;12.90;85.30;;;;;;4103154;35;20104;-87
2020/12/21 08:57:39;;;;;;;0.00;0.00;;;12.90;85.30;;;;;;4182846;27;20059;-89
2020/12/21 09:00:15;;;;;;;0.00;0.00;;;13.00;85.40;;;;;;4108956;27;20095;-89
2020/12/21 09:02:41;;;;;;;0.00;0.00;;;12.90;85.50;;;;;;4109203;35;20074;-89
2020/12/21 09:05:11;;;;;;;0.00;0.00;;;12.90;85.50;;;;;;4111563;27;20086;-89
2020/12/21 09:07:37;;;;;;;0.00;0.00;;;13.00;85.60;;;;;;4109844;27;20086;-88
2020/12/21 09:10:23;;;;;;;0.00;0.00;;;12.90;85.60;;;;;;4121805;27;20245;-88
2020/12/21 09:12:52;;;;;;;0.00;0.00;;;12.90;85.80;;;;;;4079814;35;20523;-88
2020/12/21 09:15:24;;;;;;;0.00;0.00;;;12.90;85.80;;;;;;4063744;27;20469;-89
2020/12/21 09:18:54;;;;;;;0.00;0.00;;;12.90;85.90;;;;;;4121947;27;20670;-86
2020/12/21 09:21:52;;;;;;;0.00;0.00;;;12.90;85.90;;;;;;4119072;35;20090;-87
2020/12/21 09:26:55;;;;;;;0.20;0.00;;;12.90;85.80;;;;;;4133665;27;20093;-88
2020/12/21 09:29:46;;;;;;;0.08;0.08;;;12.90;85.80;;;;;;4122753;27;20451;-88
2020/12/21 09:32:22;;;;;;;0.00;0.00;;;13.00;85.90;;;;;;4112097;28;20070;-88
2020/12/21 09:34:51;;;;;;;0.00;0.00;;;13.00;85.90;;;;;;4102966;27;20078;-89
2020/12/21 09:37:33;;;;;;;0.00;0.00;;;13.00;85.90;;;;;;4129573;27;20055;-88
2020/12/21 09:40:12;;;;;;;0.60;0.20;;;13.00;85.90;;;;;;4116798;34;20074;-88
2020/12/21 09:43:12;;;;;;;0.00;0.00;;;13.00;86.00;;;;;;4115359;27;20081;-88
2020/12/21 09:45:54;;;;;;;0.00;0.00;;;13.00;85.90;;;;;;4124550;27;20046;-89
2020/12/21 09:48:49;;;;;;;0.17;0.00;;;13.10;86.00;;;;;;4089839;35;20514;-89
2020/12/21 09:51:16;;;;;;;0.47;0.10;;;13.10;85.90;;;;;;4034504;35;20912;-88
2020/12/21 09:53:48;;;;;;;0.00;0.00;;;13.10;85.90;;;;;;4060484;35;20080;-88
2020/12/21 09:56:31;;;;;;;0.00;0.00;;;13.20;86.70;;;;;;4074858;35;20675;-87
2020/12/21 09:59:07;;;;;;;0.00;0.00;;;13.20;85.90;;;;;;4094757;27;20045;-89
2020/12/21 10:01:37;;;;;;;0.00;0.00;;;13.20;85.90;;;;;;4155773;27;20074;-92
2020/12/21 10:04:16;;;;;;;0.00;0.00;;;13.20;85.90;;;;;;4175436;27;20036;-88
2020/12/21 10:06:49;;;;;;;0.00;0.00;;;13.20;85.90;;;;;;4142918;34;20065;-88
2020/12/21 10:09:18;;;;;;;0.00;0.00;;;13.30;85.90;;;;;;4172687;27;20124;-90
2020/12/21 10:11:45;;;;;;;0.00;0.00;;;13.20;85.90;;;;;;4136658;34;20111;-88
2020/12/21 10:14:43;;;;;;;0.00;0.00;;;13.30;86.10;;;;;;4119481;34;20081;-89
2020/12/21 10:17:15;;;;;;;0.10;0.00;;;13.30;86.10;;;;;;4137133;27;20048;-87
2020/12/21 10:19:42;;;;;;;0.00;0.00;;;13.30;86.20;;;;;;4155990;27;20099;-89
2020/12/21 10:22:15;;;;;;;0.00;0.00;;;13.30;86.20;;;;;;4140833;27;20051;-88
2020/12/21 10:24:52;;;;;;;0.00;0.00;;;13.30;86.20;;;;;;4180216;27;20123;-90
2020/12/21 10:27:20;;;;;;;0.00;0.00;;;13.30;86.30;;;;;;4120985;34;20067;-88
2020/12/21 10:29:57;;;;;;;;;;;;;;;;;;;;;
2020/12/21 10:32:32;;;;;;;0.00;0.00;;;13.40;86.30;;;;;;4128652;27;20035;-88
2020/12/21 10:35:09;;;;;;;0.00;0.00;;;13.40;86.20;;;;;;4128630;27;20043;-89
2020/12/21 10:37:57;;;;;;;0.00;0.00;;;13.50;86.30;;;;;;4128738;27;20662;-88
2020/12/21 10:40:23;;;;;;;0.00;0.00;;;13.40;86.30;;;;;;4080722;27;20105;-88
2020/12/21 10:46:06;;;;;;;0.10;0.03;;;13.40;86.50;;;;;;4165994;27;20095;-89
2020/12/21 10:54:44;;;;;;;0.10;0.03;;;13.40;86.50;;;;;;4094268;27;20052;-86
2020/12/21 10:57:10;;;;;;;0.00;0.00;;;13.50;86.50;;;;;;4095348;27;20048;-86
2020/12/21 10:59:37;;;;;;;0.00;0.00;;;13.50;86.50;;;;;;4094911;27;20056;-87
2020/12/21 11:02:03;;;;;;;0.00;0.00;;;13.50;86.50;;;;;;4087638;27;20052;-87
2020/12/21 11:04:29;;;;;;;0.00;0.00;;;13.60;86.50;;;;;;4081318;27;20063;-87
2020/12/21 11:09:31;;;;;;;0.00;0.00;;;13.60;86.50;;;;;;4137954;34;20043;-85
2020/12/21 11:12:08;;;;;;;0.00;0.00;;;13.60;86.60;;;;;;4114608;27;20039;-86
2020/12/21 11:14:34;;;;;;;0.10;0.00;;;13.70;86.70;;;;;;4116887;27;20078;-87
2020/12/21 11:17:40;;;;;;;0.00;0.00;;;13.70;86.70;;;;;;4130539;27;20043;-88
2020/12/21 11:20:21;;;;;;;0.00;0.00;;;13.70;86.70;;;;;;4106596;27;20091;-87
2020/12/21 11:23:34;;;;;;;0.00;0.00;;;13.70;86.70;;;;;;4123248;34;20093;-87
2020/12/21 11:26:53;;;;;;;0.08;0.00;;;13.70;86.70;;;;;;4104285;35;20075;-87
2020/12/21 11:29:43;;;;;;;0.13;0.00;;;13.70;86.70;;;;;;4112012;34;20086;-86
2020/12/21 11:32:16;;;;;;;0.00;0.00;;;13.80;86.70;;;;;;4111079;27;20063;-87
2020/12/21 11:34:48;;;;;;;0.30;0.00;;;13.80;86.60;;;;;;4090866;35;20190;-88
2020/12/21 11:37:14;;;;;;;0.52;0.00;;;13.80;86.60;;;;;;4099670;34;20063;-86
2020/12/21 11:39:41;;;;;;;0.00;0.00;;;13.90;86.60;;;;;;4100528;34;20082;-86
2020/12/21 11:42:07;;;;;;;0.00;0.00;;;13.90;86.60;;;;;;4108916;34;20055;-85
2020/12/21 11:44:34;;;;;;;0.00;0.00;;;13.90;86.60;;;;;;4091981;27;20044;-85
2020/12/21 11:47:24;;;;;;;0.00;0.00;;;14.00;86.70;;;;;;4122201;27;20063;-85
2020/12/21 11:49:56;;;;;;;0.00;0.00;;;13.90;86.70;;;;;;4112456;27;20485;-88
2020/12/21 11:52:22;;;;;;;0.00;0.00;;;14.00;87.60;;;;;;4133642;27;20086;-84
2020/12/21 11:54:51;;;;;;;0.60;0.17;;;13.90;86.80;;;;;;4123123;34;20032;-86
2020/12/21 11:57:18;;;;;;;0.00;0.00;;;14.00;86.90;;;;;;4120301;27;20047;-84
2020/12/21 11:59:45;;;;;;;0.00;0.00;;;14.00;86.90;;;;;;4121868;34;20067;-84
2020/12/21 12:02:11;;;;;;;0.00;0.00;;;14.00;86.90;;;;;;4105893;27;20039;-84
2020/12/21 12:04:38;;;;;;;0.05;0.00;;;14.10;86.90;;;;;;4137626;27;20306;-84
2020/12/21 12:07:04;;;;;;;1.08;0.17;;;14.10;86.90;;;;;;4178077;27;20059;-85
2020/12/21 12:09:31;;;;;;;0.25;0.03;;;14.10;86.90;;;;;;4117466;34;20118;-83
2020/12/21 12:11:58;;;;;;;0.28;0.00;;;14.10;86.90;;;;;;4135110;27;20065;-83
2020/12/21 12:14:28;;;;;;;0.03;0.00;;;14.20;86.90;;;;;;4136808;27;20089;-84
2020/12/21 12:16:57;;;;;;;0.85;0.20;;;14.30;86.90;;;;;;4130246;27;20078;-84
2020/12/21 12:19:27;;;;;;;1.90;0.52;;;14.30;86.70;;;;;;4116363;34;20458;-83
2020/12/21 12:21:53;;;;;;;0.35;0.22;;;14.40;86.60;;;;;;4128673;27;20074;-84
2020/12/21 12:24:20;;;;;;;0.30;0.05;;;14.50;86.60;;;;;;4121160;27;20074;-81
2020/12/21 12:26:47;;;;;;;0.08;0.03;;;14.40;86.50;;;;;;4133734;34;20490;-84
2020/12/21 12:29:13;;;;;;;0.22;0.13;;;14.50;86.50;;;;;;4108871;34;20472;-85
2020/12/21 12:31:40;;;;;;;0.55;0.10;;;14.50;86.50;;;;;;4129344;27;20078;-83
2020/12/21 12:34:06;;;;;;;0.47;0.25;;;14.60;86.60;;;;;;4120326;34;20420;-83
2020/12/21 12:36:32;;;;;;;0.10;0.00;;;14.50;86.60;;;;;;4133152;34;20038;-82
2020/12/21 12:39:02;;;;;;;0.52;0.03;;;14.60;86.70;;;;;;4140478;27;20090;-86
2020/12/21 12:41:30;;;;;;;1.08;0.30;;;14.60;86.70;;;;;;4139694;34;20042;-85
2020/12/21 12:43:56;;;;;;;4.90;0.40;;;14.60;86.80;;;;;;4140184;34;20102;-85
2020/12/21 12:46:23;;;;;;;0.10;0.00;;;14.60;86.80;;;;;;4191330;27;20039;-85
2020/12/21 12:48:49;;;;;;;1.25;0.35;;;14.60;86.90;;;;;;4131019;27;20047;-85
2020/12/21 12:51:16;;;;;;;2.05;0.20;;;14.60;86.90;;;;;;4134816;34;20086;-85
2020/12/21 12:53:42;;;;;;;0.60;0.10;;;14.60;87.00;;;;;;4126004;27;20077;-85
2020/12/21 12:56:09;;;;;;;0.22;0.08;;;14.60;87.00;;;;;;4137391;27;20050;-85
2020/12/21 12:58:41;;;;;;;0.10;0.00;;;14.60;87.10;;;;;;4138032;27;20090;-85
2020/12/21 13:01:10;;;;;;;0.00;0.00;;;14.70;87.20;;;;;;4115831;27;20427;-85
2020/12/21 13:03:37;;;;;;;0.28;0.00;;;14.70;87.30;;;;;;4134642;27;20553;-85
2020/12/21 13:06:04;;;;;;;0.00;0.00;;;14.70;87.30;;;;;;4135539;27;20071;-85
2020/12/21 13:08:33;;;;;;;0.00;0.00;;;14.60;87.30;;;;;;4134909;34;20043;-85
2020/12/21 13:10:59;;;;;;;0.00;0.00;;;14.70;87.40;;;;;;4135787;27;20071;-84
2020/12/21 13:13:26;;;;;;;0.00;0.00;;;14.70;87.40;;;;;;4130874;34;20042;-85
2020/12/21 13:15:52;;;;;;;0.00;0.00;;;14.70;87.50;;;;;;4133176;27;20078;-87
2020/12/21 13:18:19;;;;;;;0.08;0.00;;;14.70;87.60;;;;;;4118686;27;20070;-85
2020/12/21 13:21:10;;;;;;;0.00;0.00;;;14.70;87.60;;;;;;4139300;27;20050;-85
2020/12/21 13:23:36;;;;;;;0.25;0.00;;;14.70;87.60;;;;;;4133953;27;20382;-85
2020/12/21 13:26:02;;;;;;;3.15;0.20;;;14.70;87.70;;;;;;4121883;34;20089;-86
2020/12/21 13:28:31;;;;;;;1.02;0.00;;;14.70;87.70;;;;;;4135371;34;20098;-85
2020/12/21 13:30:58;;;;;;;0.20;0.10;;;14.70;87.70;;;;;;4138893;27;20239;-85
2020/12/21 13:33:24;;;;;;;0.10;0.00;;;14.70;87.70;;;;;;4142796;27;20046;-86
2020/12/21 13:35:51;;;;;;;0.00;0.00;;;14.70;87.70;;;;;;4138941;34;20121;-85
2020/12/21 13:38:17;;;;;;;0.00;0.00;;;14.70;87.90;;;;;;4130830;27;20075;-84
2020/12/21 13:40:43;;;;;;;0.15;0.10;;;14.80;87.80;;;;;;4140322;34;20038;-86
2020/12/21 13:43:16;;;;;;;0.00;0.00;;;14.80;87.90;;;;;;4138217;34;20050;-86
2020/12/21 13:45:42;;;;;;;0.10;0.10;;;14.80;87.90;;;;;;4122473;27;20046;-86
2020/12/21 13:48:09;;;;;;;0.00;0.00;;;14.80;88.00;;;;;;4134107;34;20086;-87
2020/12/21 13:50:40;;;;;;;0.00;0.00;;;14.80;88.00;;;;;;4140665;27;20047;-87
2020/12/21 13:53:24;;;;;;;0.00;0.00;;;14.80;88.00;;;;;;4116057;34;20059;-85
2020/12/21 13:55:56;;;;;;;0.00;0.00;;;14.70;88.00;;;;;;4131618;34;20042;-86
2020/12/21 13:58:24;;;;;;;0.00;0.00;;;14.70;88.10;;;;;;4138588;34;20075;-86
2020/12/21 14:00:51;;;;;;;0.00;0.00;;;14.70;88.10;;;;;;4117378;27;20130;-85
2020/12/21 14:03:17;;;;;;;0.10;0.03;;;14.70;88.10;;;;;;4135273;34;20086;-85
2020/12/21 14:05:44;;;;;;;0.00;0.00;;;14.70;88.20;;;;;;4127537;34;20046;-86
2020/12/21 14:08:10;;;;;;;0.00;0.00;;;14.70;88.20;;;;;;4166351;27;20059;-85
2020/12/21 14:10:37;;;;;;;0.10;0.05;;;14.70;88.20;;;;;;4141234;34;20082;-85
2020/12/21 14:13:03;;;;;;;0.10;0.00;;;14.70;88.30;;;;;;4179009;27;20073;-85
2020/12/21 14:15:33;;;;;;;4.40;0.10;;;14.70;88.80;;;;;;4134834;27;20077;-85
2020/12/21 14:18:02;;;;;;;0.90;0.10;;;14.70;88.30;;;;;;4134753;34;20070;-86
2020/12/21 14:20:34;;;;;;;1.20;0.03;;;14.70;88.40;;;;;;4137528;27;20074;-87
2020/12/21 14:23:01;;;;;;;0.70;0.08;;;14.70;88.50;;;;;;4134810;27;20081;-86
2020/12/21 14:25:27;;;;;;;0.28;0.00;;;14.70;88.50;;;;;;4117081;27;20082;-86
2020/12/21 14:27:53;;;;;;;3.35;0.20;;;14.70;88.50;;;;;;4126127;34;20051;-85
2020/12/21 14:30:23;;;;;;;0.22;0.00;;;14.70;88.50;;;;;;4138202;27;20031;-85
2020/12/21 14:32:49;;;;;;;0.00;0.00;;;14.70;88.60;;;;;;4132795;27;20054;-85
2020/12/21 14:35:16;;;;;;;0.00;0.00;;;14.70;88.60;;;;;;4139494;34;20455;-85
2020/12/21 14:37:46;;;;;;;0.10;0.00;;;14.70;88.70;;;;;;4113826;27;20103;-85
2020/12/21 14:40:16;;;;;;;2.93;0.10;;;14.60;88.70;;;;;;4121273;34;20093;-86
2020/12/21 14:42:42;;;;;;;0.00;0.00;;;14.60;89.30;;;;;;4131598;27;20110;-86
2020/12/21 14:45:14;;;;;;;0.00;0.00;;;14.60;88.80;;;;;;4126781;34;20478;-87
2020/12/21 14:47:41;;;;;;;0.00;0.00;;;14.60;88.90;;;;;;4120447;27;20106;-86
2020/12/21 14:50:10;;;;;;;0.10;0.00;;;14.60;88.90;;;;;;4142068;27;20064;-86
2020/12/21 14:52:37;;;;;;;0.08;0.00;;;14.60;89.00;;;;;;4127245;27;20062;-85
2020/12/21 14:55:06;;;;;;;0.00;0.00;;;14.60;89.00;;;;;;4138198;34;20075;-85
2020/12/21 14:57:32;;;;;;;1.88;0.00;;;14.60;89.10;;;;;;4139421;34;20043;-86
2020/12/21 15:00:14;;;;;;;0.20;0.10;;;14.60;89.10;;;;;;4113568;34;20054;-86
2020/12/21 15:02:40;;;;;;;0.25;0.00;;;14.60;89.20;;;;;;4140313;27;20451;-88
2020/12/21 15:05:11;;;;;;;1.38;0.00;;;14.60;89.20;;;;;;4114890;34;20082;-86
2020/12/21 15:07:48;;;;;;;0.10;0.00;;;14.60;89.20;;;;;;4126540;34;20443;-86
2020/12/21 15:10:25;;;;;;;0.10;0.00;;;14.50;89.20;;;;;;4139336;34;20055;-85
2020/12/21 15:12:57;;;;;;;0.10;0.00;;;14.50;89.30;;;;;;4129099;34;20031;-84
2020/12/21 15:15:24;;;;;;;0.00;0.00;;;14.50;89.30;;;;;;4194117;27;20654;-85
2020/12/21 15:17:51;;;;;;;0.10;0.00;;;14.50;89.30;;;;;;4143757;34;20035;-85
2020/12/21 15:20:17;;;;;;;0.10;0.00;;;14.50;89.30;;;;;;4147725;27;20047;-84
2020/12/21 15:22:44;;;;;;;0.10;0.00;;;14.50;89.30;;;;;;4140863;34;20400;-85
2020/12/21 15:25:11;;;;;;;0.15;0.00;;;14.50;89.40;;;;;;4146222;27;20079;-84
2020/12/21 15:30:06;;;;;;;0.00;0.00;;;14.50;89.50;;;;;;4206853;27;20038;-86
2020/12/21 15:32:32;;;;;;;0.22;0.00;;;14.50;89.50;;;;;;4134477;27;20082;-86
2020/12/21 15:34:59;;;;;;;0.00;0.00;;;14.50;89.50;;;;;;4122677;34;20086;-86
2020/12/21 15:37:25;;;;;;;1.05;0.13;;;14.50;89.60;;;;;;4113319;27;20082;-86
2020/12/21 15:39:52;;;;;;;0.25;0.10;;;14.50;89.60;;;;;;4110046;27;20394;-86
2020/12/21 15:42:19;;;;;;;0.30;0.08;;;14.40;89.50;;;;;;4107603;35;20074;-86
2020/12/21 15:44:46;;;;;;;0.10;0.00;;;14.50;89.60;;;;;;4102740;27;20086;-86
2020/12/21 15:47:12;;;;;;;4.28;0.10;;;14.50;89.60;;;;;;4112480;27;20078;-86
2020/12/21 15:49:39;;;;;;;0.40;0.10;;;14.50;89.60;;;;;;4105409;35;20415;-87
2020/12/21 15:52:07;;;;;;;0.00;0.00;;;14.50;89.60;;;;;;4109217;35;20630;-87
2020/12/21 15:54:33;;;;;;;0.10;0.00;;;14.50;89.60;;;;;;4097263;27;20360;-86
2020/12/21 15:57:00;;;;;;;0.80;0.20;;;14.50;89.60;;;;;;4097147;35;20083;-86
2020/12/21 15:59:26;;;;;;;0.00;0.00;;;14.50;89.60;;;;;;4130419;27;20070;-87
2020/12/21 16:01:52;;;;;;;0.00;0.00;;;14.50;89.60;;;;;;4096689;27;20423;-86
2020/12/21 16:04:19;;;;;;;0.00;0.00;;;14.50;89.60;;;;;;4114127;34;20051;-87
2020/12/21 16:06:47;;;;;;;0.55;0.20;;;14.50;89.70;;;;;;4109724;35;20114;-88
2020/12/21 16:09:14;;;;;;;0.17;0.00;;;14.50;89.70;;;;;;4112866;27;20466;-88
2020/12/21 16:11:40;;;;;;;0.03;0.00;;;14.50;89.60;;;;;;4084503;35;20102;-86
2020/12/21 16:14:07;;;;;;;0.00;0.00;;;14.50;89.70;;;;;;4121527;35;20093;-88
2020/12/21 16:16:33;;;;;;;0.55;0.15;;;14.50;89.70;;;;;;4110873;28;20059;-87
2020/12/21 16:19:03;;;;;;;0.00;0.00;;;14.50;89.60;;;;;;4109377;35;20078;-87
2020/12/21 16:21:30;;;;;;;0.00;0.00;;;14.50;89.70;;;;;;4112562;27;20071;-87